Accueil
METAR-TAF:

METAR-TAF

Aéroports :

Aéroport de Pau-Pyrénées

Pau, France

latitude: 43-23N, longitude: 000-25W, altitude: 188 m

Observation

Le bulletin a été fait il y a 30 minutes, à 05:00 UTC
Vent 3 kt de est/sud-est
Température 6°C
Humidité 93%
Pression 1016 hPa
Visibilité 10 km ou plus
pas de nuages en-dessous de 1500 mètres et pas de cumulonimbus.

METAR: LFBP 280500Z AUTO 11003KT CAVOK 06/05 Q1016 NOSIG

Heure: 07:30 (05:30 UTC)

Prévision

Le bulletin a été fait il y a 6 heures et 30 minutes, à 23:00 UTC
Prévision valable du 28 à 00 UTC au 28 à 24 UTC
Vent 3 kt de direction variable
Visibilité 10 km ou plus
pas de nuages en-dessous de 1500 mètres et pas de cumulonimbus.
Probabilité 30% :
Temporairement
du 28 à 00 UTC au 28 à 06 UTC
Brouillard mince

TAF: LFBP 272300Z 2800/2824 VRB03KT CAVOK PROB30 TEMPO 2800/2806 MIFG

Observations et prévisions météorologiques de plus de 4000 aéroports (messages METAR et TAF).

Les stations disponibles sont représentées par des disques jaunes et rouges sur la carte.

Passer la souris dessus pour voir le nom de la station.

Cliquer dessus pour voir les observations et prévisions météorologiques.

Pour changer de carte: cliquez sur les boutons verts avec une croix noire pour zoomer, sur le bouton vert avec un tiret pour effectuer un zoom arrière, ou sur les flèches vertes pour les cartes adjacentes.


METAR-TAF: